Time,TemperatureF,DewpointF,PressureIn,WindDirection,WindDirectionDegrees,WindSpeedMPH,WindSpeedGustMPH,Humidity,HourlyPrecipIn,Conditions,Clouds,dailyrainin,SolarRadiationWatts/m^2,SoftwareType,DateUTC
2013-08-27 00:12:00,73.0,60.0,29.84,SSE,161,0.0,-999.0,64,-99.99,,,0.00,0,weatherlink.com 1.10,2013-08-27 07:12:00,
2013-08-27 00:27:00,73.0,60.0,29.85,SSE,161,0.0,-999.0,64,-99.99,,,0.00,0,weatherlink.com 1.10,2013-08-27 07:27:00,
2013-08-27 00:42:00,73.0,61.0,29.84,SSE,161,0.0,-999.0,67,-99.99,,,0.00,0,weatherlink.com 1.10,2013-08-27 07:42:00,
2013-08-27 00:57:00,72.5,63.0,29.85,NNW,330,0.0,-999.0,71,-99.99,,,0.00,0,weatherlink.com 1.10,2013-08-27 07:57:00,
2013-08-27 01:12:00,71.8,63.0,29.84,NW,319,0.0,-999.0,73,-99.99,,,0.00,0,weatherlink.com 1.10,2013-08-27 08:12:00,
2013-08-27 01:27:00,71.1,63.0,29.83,NW,319,0.0,-999.0,75,-99.99,,,0.00,0,weatherlink.com 1.10,2013-08-27 08:27:00,
2013-08-27 01:42:00,70.6,63.0,29.83,NW,319,0.0,-999.0,76,-99.99,,,0.00,0,weatherlink.com 1.10,2013-08-27 08:42:00,
2013-08-27 01:57:00,70.2,63.0,29.82,NW,319,0.0,-999.0,77,-99.99,,,0.00,0,weatherlink.com 1.10,2013-08-27 08:57:00,
2013-08-27 02:12:00,69.8,63.0,29.82,NW,319,0.0,-999.0,78,-99.99,,,0.00,0,weatherlink.com 1.10,2013-08-27 09:12:00,
2013-08-27 02:27:00,69.7,63.0,29.82,NW,319,0.0,-999.0,78,-99.99,,,0.00,0,weatherlink.com 1.10,2013-08-27 09:27:00,
2013-08-27 02:42:00,69.3,62.0,29.82,NW,319,0.0,-999.0,78,-99.99,,,0.00,0,weatherlink.com 1.10,2013-08-27 09:42:00,
2013-08-27 02:57:00,69.0,62.0,29.82,NW,319,0.0,-999.0,78,-99.99,,,0.00,0,weatherlink.com 1.10,2013-08-27 09:57:00,
2013-08-27 03:12:00,69.0,62.0,29.82,NW,319,0.0,-999.0,79,-99.99,,,0.00,0,weatherlink.com 1.10,2013-08-27 10:12:00,
2013-08-27 03:27:00,68.7,62.0,29.82,NW,319,0.0,-999.0,80,-99.99,,,0.00,0,weatherlink.com 1.10,2013-08-27 10:27:00,
2013-08-27 03:42:00,68.4,62.0,29.81,NW,319,0.0,-999.0,81,-99.99,,,0.00,0,weatherlink.com 1.10,2013-08-27 10:42:00,
2013-08-27 03:57:00,68.1,62.0,29.81,NW,319,0.0,-999.0,82,-99.99,,,0.00,0,weatherlink.com 1.10,2013-08-27 10:57:00,
2013-08-27 04:12:00,68.0,63.0,29.81,NW,319,0.0,-999.0,83,-99.99,,,0.00,0,weatherlink.com 1.10,2013-08-27 11:12:00,
2013-08-27 04:27:00,67.6,62.0,29.81,WNW,298,0.0,-999.0,83,-99.99,,,0.00,0,weatherlink.com 1.10,2013-08-27 11:27:00,
2013-08-27 04:42:00,67.4,62.0,29.81,WNW,298,0.0,-999.0,83,-99.99,,,0.00,0,weatherlink.com 1.10,2013-08-27 11:42:00,
2013-08-27 04:57:00,67.2,62.0,29.81,WNW,298,0.0,-999.0,84,-99.99,,,0.00,0,weatherlink.com 1.10,2013-08-27 11:57:00,
2013-08-27 05:12:00,67.2,62.0,29.81,WNW,298,0.0,-999.0,84,-99.99,,,0.00,0,weatherlink.com 1.10,2013-08-27 12:12:00,
2013-08-27 05:27:00,67.2,62.0,29.81,WNW,298,0.0,-999.0,83,-99.99,,,0.00,0,weatherlink.com 1.10,2013-08-27 12:27:00,
2013-08-27 05:42:00,67.0,62.0,29.82,WNW,298,0.0,-999.0,83,-99.99,,,0.00,0,weatherlink.com 1.10,2013-08-27 12:42:00,
2013-08-27 05:57:00,67.0,62.0,29.82,WNW,298,0.0,-999.0,83,-99.99,,,0.00,0,weatherlink.com 1.10,2013-08-27 12:57:00,
2013-08-27 06:13:00,67.0,62.0,29.82,WNW,298,0.0,-999.0,84,-99.99,,,0.00,0,weatherlink.com 1.10,2013-08-27 13:13:00,
2013-08-27 06:28:00,66.8,62.0,29.83,South,172,0.0,-999.0,83,-99.99,,,0.00,5,weatherlink.com 1.10,2013-08-27 13:28:00,
2013-08-27 06:43:00,66.7,61.0,29.83,South,172,0.0,-999.0,83,-99.99,,,0.00,12,weatherlink.com 1.10,2013-08-27 13:43:00,
2013-08-27 06:58:00,66.8,62.0,29.83,South,172,0.0,-999.0,84,-99.99,,,0.00,18,weatherlink.com 1.10,2013-08-27 13:58:00,
2013-08-27 07:13:00,66.9,61.0,29.83,South,172,0.0,-999.0,82,-99.99,,,0.00,26,weatherlink.com 1.10,2013-08-27 14:13:00,
2013-08-27 07:28:00,67.0,61.0,29.84,South,172,0.0,-999.0,81,-99.99,,,0.00,47,weatherlink.com 1.10,2013-08-27 14:28:00,
2013-08-27 07:43:00,67.2,61.0,29.84,South,172,0.0,-999.0,80,-99.99,,,0.00,160,weatherlink.com 1.10,2013-08-27 14:43:00,
2013-08-27 07:58:00,68.1,62.0,29.84,South,172,0.0,-999.0,80,-99.99,,,0.00,241,weatherlink.com 1.10,2013-08-27 14:58:00,
2013-08-27 08:13:00,70.3,63.0,29.84,South,171,0.0,-999.0,77,-99.99,,,0.00,285,weatherlink.com 1.10,2013-08-27 15:13:00,
2013-08-27 08:28:00,72.5,63.0,29.84,South,171,0.0,-999.0,72,-99.99,,,0.00,353,weatherlink.com 1.10,2013-08-27 15:28:00,
2013-08-27 08:43:00,75.4,63.0,29.84,South,172,0.0,-999.0,66,-99.99,,,0.00,216,weatherlink.com 1.10,2013-08-27 15:43:00,
2013-08-27 08:58:00,77.6,63.0,29.84,West,272,0.0,-999.0,61,-99.99,,,0.00,508,weatherlink.com 1.10,2013-08-27 15:58:00,
2013-08-27 09:13:00,79.3,65.0,29.84,WNW,300,0.0,-999.0,61,-99.99,,,0.00,513,weatherlink.com 1.10,2013-08-27 16:13:00,
2013-08-27 09:28:00,80.8,65.0,29.84,NW,309,1.0,-999.0,59,-99.99,,,0.00,512,weatherlink.com 1.10,2013-08-27 16:28:00,
2013-08-27 09:43:00,82.6,65.0,29.84,WNW,295,0.0,-999.0,56,-99.99,,,0.00,561,weatherlink.com 1.10,2013-08-27 16:43:00,
2013-08-27 09:58:00,83.4,60.0,29.84,NW,321,0.0,-999.0,45,-99.99,,,0.00,589,weatherlink.com 1.10,2013-08-27 16:58:00,
2013-08-27 10:13:00,85.3,65.0,29.84,NW,309,2.0,-999.0,50,-99.99,,,0.00,622,weatherlink.com 1.10,2013-08-27 17:13:00,
2013-08-27 10:28:00,85.4,65.0,29.84,NW,304,5.0,-999.0,50,-99.99,,,0.00,654,weatherlink.com 1.10,2013-08-27 17:28:00,
2013-08-27 10:43:00,85.4,63.0,29.84,NW,304,1.0,-999.0,48,-99.99,,,0.00,531,weatherlink.com 1.10,2013-08-27 17:43:00,
2013-08-27 10:59:00,86.4,64.0,29.84,NW,304,4.0,-999.0,48,-99.99,,,0.00,708,weatherlink.com 1.10,2013-08-27 17:59:00,
2013-08-27 11:14:00,87.3,63.0,29.84,WNW,297,0.0,-999.0,45,-99.99,,,0.00,733,weatherlink.com 1.10,2013-08-27 18:14:00,
2013-08-27 11:29:00,87.8,63.0,29.84,NW,305,2.0,-999.0,44,-99.99,,,0.00,758,weatherlink.com 1.10,2013-08-27 18:29:00,
2013-08-27 11:44:00,87.6,61.0,29.83,NW,313,4.0,-999.0,41,-99.99,,,0.00,773,weatherlink.com 1.10,2013-08-27 18:44:00,
2013-08-27 11:59:00,88.4,57.0,29.83,WNW,283,0.0,-999.0,35,-99.99,,,0.00,793,weatherlink.com 1.10,2013-08-27 18:59:00,
2013-08-27 12:14:00,89.8,55.0,29.82,WNW,298,0.0,-999.0,30,-99.99,,,0.00,802,weatherlink.com 1.10,2013-08-27 19:14:00,
2013-08-27 12:29:00,91.2,57.0,29.82,WSW,242,2.0,-999.0,31,-99.99,,,0.00,810,weatherlink.com 1.10,2013-08-27 19:29:00,
2013-08-27 12:44:00,92.3,60.0,29.81,WSW,250,2.0,-999.0,34,-99.99,,,0.00,814,weatherlink.com 1.10,2013-08-27 19:44:00,
2013-08-27 12:59:00,92.3,62.0,29.81,WNW,288,1.0,-999.0,36,-99.99,,,0.00,810,weatherlink.com 1.10,2013-08-27 19:59:00,
2013-08-27 13:14:00,92.5,63.0,29.80,WSW,255,0.0,-999.0,37,-99.99,,,0.00,807,weatherlink.com 1.10,2013-08-27 20:14:00,
2013-08-27 13:29:00,92.6,62.0,29.80,WNW,290,4.0,-999.0,36,-99.99,,,0.00,800,weatherlink.com 1.10,2013-08-27 20:29:00,
2013-08-27 13:44:00,93.1,63.0,29.80,WSW,252,5.0,-999.0,37,-99.99,,,0.00,786,weatherlink.com 1.10,2013-08-27 20:44:00,
2013-08-27 13:59:00,91.8,63.0,29.80,NW,319,4.0,-999.0,38,-99.99,,,0.00,772,weatherlink.com 1.10,2013-08-27 20:59:00,
2013-08-27 14:59:00,92.0,61.0,29.78,WSW,258,7.0,-999.0,35,-99.99,,,0.00,680,weatherlink.com 1.10,2013-08-27 21:59:00,
2013-08-27 15:14:00,92.4,60.0,29.78,NW,313,0.0,-999.0,34,-99.99,,,0.00,647,weatherlink.com 1.10,2013-08-27 22:14:00,
2013-08-27 15:29:00,92.5,60.0,29.77,WSW,245,3.0,-999.0,34,-99.99,,,0.00,612,weatherlink.com 1.10,2013-08-27 22:29:00,
2013-08-27 15:44:00,92.8,60.0,29.77,NW,307,0.0,-999.0,33,-99.99,,,0.00,578,weatherlink.com 1.10,2013-08-27 22:44:00,
2013-08-27 15:59:00,92.4,59.0,29.77,WNW,297,1.0,-999.0,33,-99.99,,,0.00,538,weatherlink.com 1.10,2013-08-27 22:59:00,
2013-08-27 16:14:00,92.2,58.0,29.76,NW,323,1.0,-999.0,32,-99.99,,,0.00,497,weatherlink.com 1.10,2013-08-27 23:14:00,
2013-08-27 16:29:00,93.0,60.0,29.77,West,274,0.0,-999.0,33,-99.99,,,0.00,455,weatherlink.com 1.10,2013-08-27 23:29:00,
2013-08-27 16:44:00,92.4,59.0,29.77,WSW,243,5.0,-999.0,33,-99.99,,,0.00,410,weatherlink.com 1.10,2013-08-27 23:44:00,
2013-08-27 16:59:00,92.1,59.0,29.76,South,176,0.0,-999.0,33,-99.99,,,0.00,366,weatherlink.com 1.10,2013-08-27 23:59:00,
2013-08-27 17:14:00,92.1,59.0,29.76,WSW,242,0.0,-999.0,33,-99.99,,,0.00,320,weatherlink.com 1.10,2013-08-28 00:14:00,
2013-08-27 17:29:00,91.6,57.0,29.76,WNW,286,6.0,-999.0,31,-99.99,,,0.00,113,weatherlink.com 1.10,2013-08-28 00:29:00,
2013-08-27 17:44:00,90.1,55.0,29.76,West,265,1.0,-999.0,30,-99.99,,,0.00,44,weatherlink.com 1.10,2013-08-28 00:44:00,
2013-08-27 17:59:00,89.3,53.0,29.76,WNW,283,0.0,-999.0,29,-99.99,,,0.00,93,weatherlink.com 1.10,2013-08-28 00:59:00,
2013-08-27 18:14:00,88.9,52.0,29.76,NW,326,0.0,-999.0,28,-99.99,,,0.00,104,weatherlink.com 1.10,2013-08-28 01:14:00,
2013-08-27 18:29:00,88.1,51.0,29.76,WNW,285,0.0,-999.0,28,-99.99,,,0.00,21,weatherlink.com 1.10,2013-08-28 01:29:00,
2013-08-27 18:44:00,86.8,51.0,29.76,WNW,288,0.0,-999.0,29,-99.99,,,0.00,18,weatherlink.com 1.10,2013-08-28 01:44:00,
2013-08-27 18:59:00,85.9,54.0,29.77,East,80,0.0,-999.0,33,-99.99,,,0.00,12,weatherlink.com 1.10,2013-08-28 01:59:00,
2013-08-27 19:14:00,84.3,58.0,29.77,East,88,0.0,-999.0,41,-99.99,,,0.00,5,weatherlink.com 1.10,2013-08-28 02:14:00,
2013-08-27 19:29:00,82.1,59.0,29.77,SE,143,0.0,-999.0,46,-99.99,,,0.00,0,weatherlink.com 1.10,2013-08-28 02:29:00,
2013-08-27 19:44:00,80.0,59.0,29.78,East,80,1.0,-999.0,49,-99.99,,,0.00,0,weatherlink.com 1.10,2013-08-28 02:44:00,
2013-08-27 19:59:00,77.9,59.0,29.79,SE,133,0.0,-999.0,53,-99.99,,,0.00,0,weatherlink.com 1.10,2013-08-28 02:59:00,
2013-08-27 20:14:00,76.7,59.0,29.79,South,175,0.0,-999.0,55,-99.99,,,0.00,0,weatherlink.com 1.10,2013-08-28 03:14:00,
2013-08-27 20:29:00,75.5,59.0,29.80,South,181,0.0,-999.0,57,-99.99,,,0.00,0,weatherlink.com 1.10,2013-08-28 03:29:00,
2013-08-27 20:44:00,74.5,60.0,29.80,South,176,0.0,-999.0,60,-99.99,,,0.00,0,weatherlink.com 1.10,2013-08-28 03:44:00,
2013-08-27 20:59:00,73.8,60.0,29.81,South,176,0.0,-999.0,62,-99.99,,,0.00,0,weatherlink.com 1.10,2013-08-28 03:59:00,
2013-08-27 21:14:00,73.1,60.0,29.81,South,172,0.0,-999.0,64,-99.99,,,0.00,0,weatherlink.com 1.10,2013-08-28 04:14:00,
2013-08-27 21:29:00,72.4,60.0,29.82,South,172,0.0,-999.0,65,-99.99,,,0.00,0,weatherlink.com 1.10,2013-08-28 04:29:00,
2013-08-27 21:44:00,71.7,61.0,29.82,South,172,0.0,-999.0,68,-99.99,,,0.00,0,weatherlink.com 1.10,2013-08-28 04:44:00,
2013-08-27 21:59:00,71.3,61.0,29.82,South,172,0.0,-999.0,70,-99.99,,,0.00,0,weatherlink.com 1.10,2013-08-28 04:59:00,
2013-08-27 22:14:00,70.6,61.0,29.83,SSW,210,0.0,-999.0,72,-99.99,,,0.00,0,weatherlink.com 1.10,2013-08-28 05:14:00,
2013-08-27 22:29:00,69.8,61.0,29.83,WSW,255,0.0,-999.0,74,-99.99,,,0.00,0,weatherlink.com 1.10,2013-08-28 05:29:00,
2013-08-27 22:44:00,69.5,61.0,29.82,WSW,255,0.0,-999.0,75,-99.99,,,0.00,0,weatherlink.com 1.10,2013-08-28 05:44:00,
2013-08-27 22:59:00,69.2,61.0,29.82,WSW,255,0.0,-999.0,76,-99.99,,,0.00,0,weatherlink.com 1.10,2013-08-28 05:59:00,
2013-08-27 23:14:00,69.2,61.0,29.82,WSW,255,0.0,-999.0,76,-99.99,,,0.00,0,weatherlink.com 1.10,2013-08-28 06:14:00,
2013-08-27 23:29:00,68.8,61.0,29.82,WSW,255,0.0,-999.0,77,-99.99,,,0.00,0,weatherlink.com 1.10,2013-08-28 06:29:00,
2013-08-27 23:44:00,68.6,61.0,29.81,WSW,255,0.0,-999.0,77,-99.99,,,0.00,0,weatherlink.com 1.10,2013-08-28 06:44:00,
2013-08-27 23:59:00,68.4,61.0,29.81,WSW,255,0.0,-999.0,77,-99.99,,,0.00,0,weatherlink.com 1.10,2013-08-28 06:59:00,